Time;durP1;ratioP1;P1;durP2;ratioP2;P2;SDS_P1;SDS_P2;PMS_P1;PMS_P2;Temp;Humidity;BMP_temperature;BMP_pressure;BME280_temperature;BME280_humidity;BME280_pressure;Samples;Min_cycle;Max_cycle;Signal;HPM_P1;HPM_P2
2021/07/29 00:00:32;;;;;;;6.13;2.63;;;18.20;99.90;;;;;;4149683;28;20137;-72
2021/07/29 00:02:33;;;;;;;4.00;2.25;;;18.20;99.90;;;;;;4154480;28;20121;-72
2021/07/29 00:04:33;;;;;;;3.55;2.17;;;18.20;99.90;;;;;;4155019;28;20064;-72
2021/07/29 00:06:34;;;;;;;3.13;2.22;;;18.20;99.90;;;;;;4153422;28;20037;-72
2021/07/29 00:08:35;;;;;;;4.38;2.45;;;18.20;99.90;;;;;;4150299;28;20684;-72
2021/07/29 00:10:35;;;;;;;5.18;2.20;;;18.10;99.90;;;;;;4149786;28;20034;-72
2021/07/29 00:12:36;;;;;;;9.65;2.60;;;18.20;99.90;;;;;;4149671;28;20042;-72
2021/07/29 00:14:37;;;;;;;3.35;2.40;;;18.10;99.90;;;;;;4133863;28;20082;-73
2021/07/29 00:16:44;;;;;;;5.05;2.30;;;18.00;99.90;;;;;;4129803;28;20042;-72
2021/07/29 00:21:03;;;;;;;3.78;2.45;;;18.10;99.90;;;;;;4153428;28;20033;-72
2021/07/29 00:23:05;;;;;;;2.08;1.88;;;18.00;99.90;;;;;;4153189;28;20044;-72
2021/07/29 00:25:07;;;;;;;3.95;2.40;;;18.00;99.90;;;;;;4155810;28;20048;-72
2021/07/29 00:27:08;;;;;;;4.65;2.20;;;18.00;99.90;;;;;;4151199;28;20038;-72
2021/07/29 00:29:08;;;;;;;3.92;2.33;;;18.00;99.90;;;;;;4153882;28;20029;-72
2021/07/29 00:31:09;;;;;;;4.32;2.42;;;18.00;99.90;;;;;;4150734;28;20137;-72
2021/07/29 00:33:09;;;;;;;3.25;1.92;;;18.00;99.90;;;;;;4137092;28;20104;-72
2021/07/29 00:35:15;;;;;;;10.18;2.30;;;18.00;99.90;;;;;;4150708;28;20026;-72
2021/07/29 00:37:15;;;;;;;4.38;2.50;;;18.00;99.90;;;;;;4153372;28;20029;-72
2021/07/29 00:39:16;;;;;;;5.15;2.03;;;17.90;99.90;;;;;;4156086;28;20041;-73
2021/07/29 00:41:17;;;;;;;3.05;2.13;;;17.90;99.90;;;;;;4133484;28;20553;-72
2021/07/29 00:43:17;;;;;;;6.38;2.55;;;17.90;99.90;;;;;;4135618;28;20022;-72
2021/07/29 00:45:18;;;;;;;3.20;1.80;;;17.80;99.90;;;;;;4151502;28;20127;-72
2021/07/29 00:47:19;;;;;;;3.55;2.00;;;17.90;99.90;;;;;;4149021;28;20034;-72
2021/07/29 00:49:20;;;;;;;3.85;2.03;;;17.90;99.90;;;;;;4152368;28;20045;-72
2021/07/29 00:51:22;;;;;;;2.85;1.88;;;17.90;99.90;;;;;;4149658;28;20644;-73
2021/07/29 00:53:23;;;;;;;3.67;2.42;;;17.90;99.90;;;;;;4153035;28;20133;-72
2021/07/29 00:55:24;;;;;;;4.90;1.90;;;17.90;99.90;;;;;;4153076;28;20540;-72
2021/07/29 00:57:24;;;;;;;7.47;2.33;;;17.80;99.90;;;;;;4131520;28;20127;-72
2021/07/29 00:59:25;;;;;;;4.20;2.40;;;17.80;99.90;;;;;;4146800;28;20642;-72
2021/07/29 01:01:26;;;;;;;5.60;2.25;;;17.80;99.90;;;;;;4144462;28;20022;-72
2021/07/29 01:03:26;;;;;;;5.72;2.13;;;17.80;99.90;;;;;;4152750;28;20030;-72
2021/07/29 01:05:27;;;;;;;3.58;2.20;;;17.80;99.90;;;;;;4144665;28;20021;-72
2021/07/29 01:07:27;;;;;;;2.78;2.10;;;17.80;99.90;;;;;;4152861;28;20079;-72
2021/07/29 01:09:29;;;;;;;4.88;2.58;;;17.80;99.90;;;;;;4154243;28;20033;-72
2021/07/29 01:11:30;;;;;;;3.83;2.00;;;17.80;99.90;;;;;;4149952;28;20057;-72
2021/07/29 01:13:30;;;;;;;7.10;2.50;;;17.70;99.90;;;;;;4131042;28;20041;-72
2021/07/29 01:15:31;;;;;;;3.17;2.03;;;17.70;99.90;;;;;;4135521;28;20042;-72
2021/07/29 01:17:33;;;;;;;3.75;2.00;;;17.80;99.90;;;;;;4154078;28;20065;-72
2021/07/29 01:19:33;;;;;;;7.60;2.93;;;17.80;99.90;;;;;;4150944;28;20038;-73
2021/07/29 01:21:35;;;;;;;4.20;2.40;;;17.80;99.90;;;;;;4131145;28;20022;-72
2021/07/29 01:23:35;;;;;;;3.17;1.85;;;17.80;99.90;;;;;;4129923;28;20541;-72
2021/07/29 01:25:36;;;;;;;5.95;2.30;;;17.70;99.90;;;;;;4133192;28;20129;-73
2021/07/29 01:27:37;;;;;;;4.93;1.95;;;17.70;99.90;;;;;;4154133;28;20474;-72
2021/07/29 01:29:38;;;;;;;3.25;1.80;;;17.70;99.90;;;;;;4157028;28;20018;-72
2021/07/29 01:31:38;;;;;;;5.88;2.25;;;17.80;99.90;;;;;;4130669;28;20033;-72
2021/07/29 01:33:40;;;;;;;5.22;2.10;;;17.80;99.90;;;;;;4149975;28;21062;-72
2021/07/29 01:35:43;;;;;;;2.63;2.00;;;17.70;99.90;;;;;;4136479;28;20084;-72
2021/07/29 01:37:43;;;;;;;4.22;2.00;;;17.70;99.90;;;;;;4155336;28;20095;-72
2021/07/29 01:39:44;;;;;;;2.15;1.60;;;17.70;99.90;;;;;;4146057;28;20034;-72
2021/07/29 01:41:44;;;;;;;3.83;2.47;;;17.70;99.90;;;;;;4152707;28;20050;-72
2021/07/29 01:43:45;;;;;;;3.50;1.92;;;17.70;99.90;;;;;;4156626;28;20374;-72
2021/07/29 01:45:46;;;;;;;6.10;2.30;;;17.70;99.90;;;;;;4156662;28;20033;-72
2021/07/29 01:47:46;;;;;;;3.80;2.88;;;17.60;99.90;;;;;;4150059;28;20045;-72
2021/07/29 01:49:47;;;;;;;5.47;2.42;;;17.60;99.90;;;;;;4146459;28;20045;-72
2021/07/29 01:51:49;;;;;;;3.45;1.90;;;17.60;99.90;;;;;;4147854;28;20109;-73
2021/07/29 01:53:49;;;;;;;5.13;2.30;;;17.50;99.90;;;;;;4135407;28;20045;-72
2021/07/29 01:55:50;;;;;;;4.35;2.10;;;17.50;99.90;;;;;;4150771;28;20272;-72
2021/07/29 01:57:51;;;;;;;3.30;2.03;;;17.60;99.90;;;;;;4147754;28;20026;-72
2021/07/29 01:59:52;;;;;;;4.47;2.00;;;17.60;99.90;;;;;;4150511;28;20025;-73
2021/07/29 02:01:53;;;;;;;6.97;2.63;;;17.50;99.90;;;;;;4127429;28;20038;-72
2021/07/29 02:03:53;;;;;;;5.47;2.28;;;17.60;99.90;;;;;;4155110;28;20069;-72
2021/07/29 02:05:54;;;;;;;3.90;2.10;;;17.50;99.90;;;;;;4151840;28;20505;-72
2021/07/29 02:07:55;;;;;;;5.25;2.40;;;17.50;99.90;;;;;;4144400;28;20037;-72
2021/07/29 02:09:55;;;;;;;4.55;2.38;;;17.50;99.90;;;;;;4143570;28;20642;-72
2021/07/29 02:11:56;;;;;;;6.53;2.17;;;17.50;99.90;;;;;;4128746;28;20057;-72
2021/07/29 02:13:57;;;;;;;3.03;2.10;;;17.50;99.90;;;;;;4149068;28;20095;-72
2021/07/29 02:15:58;;;;;;;3.13;2.10;;;17.50;99.90;;;;;;4151747;28;20049;-72
2021/07/29 02:18:00;;;;;;;3.28;2.05;;;17.50;99.90;;;;;;4154078;28;20188;-72
2021/07/29 02:20:01;;;;;;;4.20;2.17;;;17.60;99.90;;;;;;4156712;28;20025;-72
2021/07/29 02:22:01;;;;;;;4.18;2.05;;;17.50;99.90;;;;;;4152664;28;20435;-72
2021/07/29 02:24:02;;;;;;;5.18;2.40;;;17.50;99.90;;;;;;4148472;28;20638;-72
2021/07/29 02:26:03;;;;;;;7.38;2.53;;;17.50;99.90;;;;;;4145244;28;20111;-72
2021/07/29 02:28:04;;;;;;;4.95;2.50;;;17.50;99.90;;;;;;4133766;28;20409;-72
2021/07/29 02:30:05;;;;;;;3.60;2.50;;;17.50;99.90;;;;;;4152106;28;20038;-72
2021/07/29 02:32:06;;;;;;;3.63;2.00;;;17.40;99.90;;;;;;4156737;28;20119;-73
2021/07/29 02:34:07;;;;;;;7.40;2.38;;;17.50;99.90;;;;;;4146709;28;20714;-72
2021/07/29 02:36:07;;;;;;;5.57;2.30;;;17.50;99.90;;;;;;4129384;28;20026;-72
2021/07/29 02:38:08;;;;;;;3.67;2.60;;;17.50;99.90;;;;;;4151712;28;20045;-72
2021/07/29 02:40:09;;;;;;;9.45;2.78;;;17.50;99.90;;;;;;4151593;28;20053;-72
2021/07/29 02:42:10;;;;;;;3.78;2.53;;;17.40;99.90;;;;;;4151644;28;20053;-72
2021/07/29 02:44:10;;;;;;;6.63;2.72;;;17.40;99.90;;;;;;4151643;28;20043;-72
2021/07/29 02:46:11;;;;;;;5.55;2.85;;;17.40;99.90;;;;;;4149312;28;20049;-72
2021/07/29 02:48:11;;;;;;;4.82;2.45;;;17.40;99.90;;;;;;4152685;28;20041;-73
2021/07/29 02:50:12;;;;;;;6.68;2.83;;;17.40;99.90;;;;;;4148759;28;20038;-73
2021/07/29 02:52:13;;;;;;;5.85;2.75;;;17.40;99.90;;;;;;4156754;28;20030;-72
2021/07/29 02:54:13;;;;;;;5.10;2.33;;;17.30;99.90;;;;;;4148035;28;20554;-72
2021/07/29 02:56:14;;;;;;;4.07;2.35;;;17.30;99.90;;;;;;4155388;28;20040;-72
2021/07/29 02:58:15;;;;;;;7.75;2.65;;;17.30;99.90;;;;;;4136591;28;20093;-72
2021/07/29 03:00:15;;;;;;;11.13;2.65;;;17.30;99.90;;;;;;4147582;28;20046;-72
2021/07/29 03:02:16;;;;;;;6.78;2.88;;;17.30;99.90;;;;;;4151196;28;20025;-72
2021/07/29 03:04:16;;;;;;;5.72;3.10;;;17.30;99.90;;;;;;4158341;28;20051;-72
2021/07/29 03:06:17;;;;;;;4.28;2.53;;;17.30;99.90;;;;;;4151833;28;20029;-72
2021/07/29 03:08:18;;;;;;;4.40;2.83;;;17.30;99.90;;;;;;4154659;28;20026;-72
2021/07/29 03:10:18;;;;;;;7.47;2.38;;;17.30;99.90;;;;;;4133736;28;20046;-73
2021/07/29 03:12:19;;;;;;;6.43;2.45;;;17.30;99.90;;;;;;4150390;28;20562;-73
2021/07/29 03:14:19;;;;;;;5.93;2.55;;;17.30;99.90;;;;;;4136376;28;20041;-72
2021/07/29 03:16:20;;;;;;;6.35;2.80;;;17.30;99.90;;;;;;4137227;28;20573;-72
2021/07/29 03:18:21;;;;;;;4.80;2.63;;;17.30;99.90;;;;;;4149951;28;20176;-72
2021/07/29 03:20:22;;;;;;;5.85;2.60;;;17.30;99.90;;;;;;4158545;28;20092;-72
2021/07/29 03:22:23;;;;;;;6.10;2.67;;;17.30;99.90;;;;;;4149842;28;20693;-73
2021/07/29 03:24:23;;;;;;;4.93;2.33;;;17.30;99.90;;;;;;4154673;28;20083;-72
2021/07/29 03:26:24;;;;;;;7.13;3.00;;;17.40;99.90;;;;;;4134329;28;20125;-72
2021/07/29 03:28:25;;;;;;;9.23;2.78;;;17.30;99.90;;;;;;4156325;28;20096;-72
2021/07/29 03:30:25;;;;;;;5.47;2.20;;;17.30;99.90;;;;;;4155134;28;20491;-72
2021/07/29 03:32:26;;;;;;;5.15;2.45;;;17.30;99.90;;;;;;4155007;28;20117;-72
2021/07/29 03:34:26;;;;;;;4.95;2.10;;;17.30;99.90;;;;;;4145883;28;20053;-72
2021/07/29 03:36:27;;;;;;;5.95;2.55;;;17.40;99.90;;;;;;4150423;28;20555;-72
2021/07/29 03:38:27;;;;;;;3.95;2.00;;;17.40;99.90;;;;;;4154144;28;20041;-72
2021/07/29 03:40:28;;;;;;;7.32;2.72;;;17.40;99.90;;;;;;4146593;28;20030;-72
2021/07/29 03:42:28;;;;;;;6.47;2.53;;;17.40;99.90;;;;;;4151879;28;20040;-72
2021/07/29 03:44:29;;;;;;;4.90;2.00;;;17.40;99.90;;;;;;4148519;28;20104;-72
2021/07/29 03:46:30;;;;;;;4.07;2.20;;;17.30;99.90;;;;;;4147912;28;20050;-72
2021/07/29 03:48:30;;;;;;;7.00;2.70;;;17.30;99.90;;;;;;4158538;28;20183;-72
2021/07/29 03:50:31;;;;;;;3.78;2.22;;;17.30;99.90;;;;;;4154010;28;20126;-72
2021/07/29 03:52:34;;;;;;;9.23;2.47;;;17.30;99.90;;;;;;4153804;28;20037;-72
2021/07/29 03:54:35;;;;;;;4.93;2.25;;;17.30;99.90;;;;;;4151046;28;20080;-72
2021/07/29 03:56:35;;;;;;;4.65;2.38;;;17.30;99.90;;;;;;4136232;28;20483;-72
2021/07/29 03:58:36;;;;;;;7.35;2.30;;;17.30;99.90;;;;;;4134782;28;20096;-72
2021/07/29 04:00:37;;;;;;;5.38;2.70;;;17.20;99.90;;;;;;4155845;28;20030;-72
2021/07/29 04:02:39;;;;;;;7.00;2.35;;;17.20;99.90;;;;;;4153434;28;20096;-72
2021/07/29 04:04:40;;;;;;;3.50;2.13;;;17.20;99.90;;;;;;4153960;28;20033;-72
2021/07/29 04:06:41;;;;;;;7.75;2.28;;;17.20;99.90;;;;;;4149481;28;20146;-72
2021/07/29 04:08:41;;;;;;;3.65;2.53;;;17.20;99.90;;;;;;4149617;28;20409;-72
2021/07/29 04:10:42;;;;;;;5.38;2.63;;;17.20;99.90;;;;;;4150090;28;20026;-72
2021/07/29 04:12:42;;;;;;;3.40;2.00;;;17.20;99.90;;;;;;4156189;28;20071;-72
2021/07/29 04:14:43;;;;;;;9.00;2.33;;;17.20;99.90;;;;;;4149716;28;20061;-72
2021/07/29 04:16:44;;;;;;;6.53;2.63;;;17.30;99.90;;;;;;4127640;28;20489;-72
2021/07/29 04:18:44;;;;;;;9.35;3.03;;;17.20;99.90;;;;;;4149360;28;20057;-72
2021/07/29 04:20:45;;;;;;;5.80;2.70;;;17.20;99.90;;;;;;4133937;28;20034;-73
2021/07/29 04:22:46;;;;;;;5.38;2.35;;;17.20;99.90;;;;;;4151145;28;20030;-73
2021/07/29 04:24:46;;;;;;;6.57;2.80;;;17.30;99.90;;;;;;4149352;28;20370;-72
2021/07/29 04:26:47;;;;;;;4.15;2.08;;;17.30;99.90;;;;;;4131881;28;20084;-72
2021/07/29 04:28:47;;;;;;;7.43;2.55;;;17.20;99.90;;;;;;4156852;28;20029;-72
2021/07/29 04:30:48;;;;;;;4.78;2.53;;;17.30;99.90;;;;;;4130480;28;20034;-72
2021/07/29 04:32:48;;;;;;;8.88;3.08;;;17.30;99.90;;;;;;4144590;28;20041;-72
2021/07/29 04:34:49;;;;;;;5.13;2.22;;;17.30;99.90;;;;;;4153855;28;20068;-72
2021/07/29 04:36:52;;;;;;;6.85;2.70;;;17.20;99.90;;;;;;4156645;28;20045;-72
2021/07/29 04:38:52;;;;;;;;;;;17.20;99.90;;;;;;4153253;28;20117;-72
2021/07/29 04:41:03;;;;;;;6.82;2.55;;;17.20;99.90;;;;;;4153718;28;20320;-73
2021/07/29 04:43:04;;;;;;;5.93;2.72;;;17.20;99.90;;;;;;4149791;28;20052;-72
2021/07/29 04:45:05;;;;;;;7.75;2.65;;;17.20;99.90;;;;;;4149206;28;20042;-72
2021/07/29 04:47:06;;;;;;;9.10;2.70;;;17.10;99.90;;;;;;4138594;28;20128;-72
2021/07/29 04:49:08;;;;;;;3.78;2.40;;;17.20;99.90;;;;;;4137759;28;20048;-72
2021/07/29 04:51:09;;;;;;;;;;;17.20;99.90;;;;;;4130946;28;20519;-72
2021/07/29 04:53:09;;;;;;;11.80;2.75;;;17.20;99.90;;;;;;4137309;28;19917;-72
2021/07/29 04:55:10;;;;;;;8.00;2.65;;;17.20;99.90;;;;;;4140391;28;20038;-72
2021/07/29 04:57:11;;;;;;;4.40;2.30;;;17.20;99.90;;;;;;4144649;28;24678;-72
2021/07/29 04:59:11;;;;;;;5.22;2.22;;;17.10;99.90;;;;;;4142187;28;20064;-73
2021/07/29 05:01:12;;;;;;;4.15;2.00;;;17.20;99.90;;;;;;4125295;28;20489;-72
2021/07/29 05:03:12;;;;;;;6.47;2.17;;;17.20;99.90;;;;;;4146908;28;20440;-72
2021/07/29 05:05:13;;;;;;;4.40;2.00;;;17.20;99.90;;;;;;4140235;28;20029;-72
2021/07/29 05:07:14;;;;;;;5.43;2.70;;;17.10;99.90;;;;;;4138381;28;20064;-73
2021/07/29 05:09:14;;;;;;;7.03;2.42;;;17.20;99.90;;;;;;4145065;28;20033;-72
2021/07/29 05:11:15;;;;;;;5.43;2.25;;;17.20;99.90;;;;;;4131834;28;20536;-72
2021/07/29 05:13:16;;;;;;;5.60;2.20;;;17.20;99.90;;;;;;4153645;28;20062;-72
2021/07/29 05:15:16;;;;;;;5.53;2.30;;;17.20;99.90;;;;;;4145853;28;20041;-72
2021/07/29 05:17:17;;;;;;;6.05;2.10;;;17.20;99.90;;;;;;4152138;28;20069;-72
2021/07/29 05:19:17;;;;;;;5.00;2.25;;;17.20;99.90;;;;;;4148746;28;20046;-72
2021/07/29 05:21:18;;;;;;;4.70;2.30;;;17.20;99.90;;;;;;4153837;28;20061;-72
2021/07/29 05:23:19;;;;;;;4.32;2.08;;;17.30;99.90;;;;;;4137711;28;20037;-72
2021/07/29 05:25:22;;;;;;;7.07;2.15;;;17.30;99.90;;;;;;4147667;28;20034;-72
2021/07/29 05:27:23;;;;;;;7.53;2.30;;;17.20;99.90;;;;;;4151776;28;20140;-72
2021/07/29 05:29:24;;;;;;;7.35;2.60;;;17.20;99.90;;;;;;4124133;28;20129;-72
2021/07/29 05:31:24;;;;;;;6.25;1.77;;;17.20;99.90;;;;;;4144827;28;20038;-72
2021/07/29 05:33:25;;;;;;;5.00;2.28;;;17.30;99.90;;;;;;4150096;28;20103;-72
2021/07/29 05:35:25;;;;;;;7.70;2.40;;;17.30;99.90;;;;;;4140127;28;20035;-72
2021/07/29 05:37:26;;;;;;;7.38;2.35;;;17.20;99.90;;;;;;4149945;28;20030;-72
2021/07/29 05:39:27;;;;;;;4.07;2.10;;;17.20;99.90;;;;;;4142578;28;20114;-72
2021/07/29 05:41:29;;;;;;;10.75;1.98;;;17.30;99.90;;;;;;4127305;28;20042;-72
2021/07/29 05:43:30;;;;;;;7.53;2.37;;;17.30;99.90;;;;;;4146211;28;20611;-73
2021/07/29 05:45:34;;;;;;;8.18;2.47;;;17.30;99.90;;;;;;4138365;28;20045;-72
2021/07/29 05:47:37;;;;;;;6.03;2.45;;;17.30;99.90;;;;;;4131636;28;20522;-73
2021/07/29 05:49:38;;;;;;;6.32;2.13;;;17.30;99.90;;;;;;4135392;28;20126;-73
2021/07/29 05:51:38;;;;;;;3.78;2.38;;;17.30;99.90;;;;;;4150618;28;20095;-72
2021/07/29 05:53:39;;;;;;;8.30;2.47;;;17.30;99.90;;;;;;4131541;28;20030;-72
2021/07/29 05:55:42;;;;;;;6.43;2.15;;;17.30;99.90;;;;;;4147335;28;20021;-72
2021/07/29 05:57:42;;;;;;;6.88;2.10;;;17.30;99.90;;;;;;4131911;28;20426;-72
2021/07/29 05:59:43;;;;;;;5.13;2.10;;;17.40;99.90;;;;;;4144720;28;20022;-72
2021/07/29 06:01:43;;;;;;;4.57;1.85;;;17.30;99.90;;;;;;4145779;28;20443;-72
2021/07/29 06:03:44;;;;;;;4.05;1.92;;;17.40;99.90;;;;;;4141217;28;20478;-73
2021/07/29 06:05:45;;;;;;;9.60;2.63;;;17.50;99.90;;;;;;4128697;28;20136;-72
2021/07/29 06:07:45;;;;;;;11.65;2.28;;;17.50;99.90;;;;;;4146060;28;20040;-72
2021/07/29 06:09:46;;;;;;;5.32;2.13;;;17.40;99.90;;;;;;4145826;28;20037;-72
2021/07/29 06:11:46;;;;;;;5.40;2.35;;;17.50;99.90;;;;;;4140903;28;20029;-72
2021/07/29 06:13:47;;;;;;;5.57;2.05;;;17.50;99.90;;;;;;4119204;28;20053;-72
2021/07/29 06:15:47;;;;;;;4.68;2.13;;;17.50;99.90;;;;;;4117018;28;20110;-72
2021/07/29 06:18:01;;;;;;;7.10;2.20;;;17.60;99.90;;;;;;4135474;28;20027;-72
2021/07/29 06:20:06;;;;;;;6.82;2.05;;;17.80;99.90;;;;;;4129564;28;20041;-72
2021/07/29 06:22:06;;;;;;;10.63;2.53;;;18.00;99.90;;;;;;4116522;28;20039;-72
2021/07/29 06:24:07;;;;;;;6.55;1.90;;;18.30;99.90;;;;;;4135967;28;20735;-72
2021/07/29 06:26:09;;;;;;;8.13;1.77;;;18.50;99.90;;;;;;4137635;28;20615;-72
2021/07/29 06:28:14;;;;;;;10.27;1.73;;;18.90;99.90;;;;;;4133685;28;20048;-72
2021/07/29 06:30:18;;;;;;;4.88;1.98;;;19.10;99.90;;;;;;4119212;28;20686;-72
2021/07/29 06:32:18;;;;;;;3.85;1.40;;;19.30;99.90;;;;;;4136096;28;20030;-72
2021/07/29 06:34:19;;;;;;;5.07;1.75;;;19.50;99.90;;;;;;4136691;28;20474;-72
2021/07/29 06:36:20;;;;;;;8.77;2.35;;;19.80;99.90;;;;;;4133565;28;20113;-72
2021/07/29 06:38:20;;;;;;;4.68;1.70;;;19.90;99.90;;;;;;4095628;28;20050;-72
2021/07/29 06:40:21;;;;;;;6.50;2.10;;;20.10;99.90;;;;;;4111904;28;20096;-73
2021/07/29 06:42:21;;;;;;;7.43;1.77;;;19.90;99.90;;;;;;4118329;28;20372;-72
2021/07/29 06:44:22;;;;;;;5.60;1.77;;;19.80;99.90;;;;;;4112618;28;20648;-73
2021/07/29 06:46:23;;;;;;;5.28;1.70;;;20.00;99.90;;;;;;4133672;28;20820;-73
2021/07/29 06:48:23;;;;;;;9.05;2.20;;;19.80;99.90;;;;;;4113789;28;20109;-73
2021/07/29 06:50:24;;;;;;;5.65;1.80;;;19.70;99.90;;;;;;4133873;28;20034;-73
2021/07/29 06:52:24;;;;;;;4.78;1.77;;;19.60;99.90;;;;;;4115359;28;20046;-73
2021/07/29 06:54:25;;;;;;;8.50;1.90;;;19.50;99.90;;;;;;4133016;28;20049;-73
2021/07/29 06:56:26;;;;;;;4.05;1.90;;;19.50;99.90;;;;;;4132696;28;20112;-73
2021/07/29 06:58:26;;;;;;;5.13;1.92;;;19.30;99.90;;;;;;4113082;28;20042;-73
2021/07/29 07:00:27;;;;;;;3.17;1.70;;;19.30;99.90;;;;;;4114686;28;20723;-73
2021/07/29 07:02:28;;;;;;;9.20;2.00;;;19.20;99.90;;;;;;4137702;28;20061;-73
2021/07/29 07:04:29;;;;;;;10.65;2.17;;;19.20;99.90;;;;;;4131883;28;20041;-72
2021/07/29 07:06:33;;;;;;;9.52;2.45;;;19.20;99.90;;;;;;4134682;28;20073;-72
2021/07/29 07:08:35;;;;;;;9.88;1.55;;;19.10;99.90;;;;;;4117822;28;20058;-72
2021/07/29 07:10:35;;;;;;;8.32;1.80;;;19.00;99.90;;;;;;4115056;28;20042;-73
2021/07/29 07:12:36;;;;;;;9.13;2.25;;;19.00;99.90;;;;;;4132810;28;20042;-72
2021/07/29 07:14:37;;;;;;;5.45;2.20;;;19.00;99.90;;;;;;4130952;28;20050;-72
2021/07/29 07:16:37;;;;;;;5.15;1.52;;;18.90;99.90;;;;;;4132003;28;20042;-72
2021/07/29 07:18:39;;;;;;;9.48;2.58;;;18.90;99.90;;;;;;4118439;28;20045;-72
2021/07/29 07:20:40;;;;;;;8.05;2.30;;;18.90;99.90;;;;;;4129941;28;20069;-72
2021/07/29 07:22:40;;;;;;;4.63;2.13;;;18.80;99.90;;;;;;4133958;28;20033;-73
2021/07/29 07:24:41;;;;;;;7.00;2.22;;;18.80;99.90;;;;;;4112813;28;20546;-72
2021/07/29 07:26:41;;;;;;;7.63;2.10;;;18.70;99.90;;;;;;4135354;28;20131;-73
2021/07/29 07:28:42;;;;;;;5.22;2.00;;;18.70;99.90;;;;;;4131890;28;20048;-73
2021/07/29 07:30:43;;;;;;;6.28;1.48;;;18.80;99.90;;;;;;4111962;28;20066;-72
2021/07/29 07:32:44;;;;;;;5.75;1.83;;;18.70;99.90;;;;;;4134228;28;20128;-73
2021/07/29 07:34:44;;;;;;;16.73;2.20;;;18.80;99.90;;;;;;4119378;28;20050;-73
2021/07/29 07:36:45;;;;;;;8.50;2.03;;;18.80;99.90;;;;;;4130909;28;20497;-73
2021/07/29 07:38:48;;;;;;;8.70;2.05;;;18.80;99.90;;;;;;4127679;28;20083;-73
2021/07/29 07:40:50;;;;;;;6.50;1.95;;;18.80;99.90;;;;;;4095678;28;20543;-73
2021/07/29 07:42:51;;;;;;;4.90;1.85;;;18.90;99.90;;;;;;4133015;28;20098;-73
2021/07/29 07:44:55;;;;;;;5.45;1.98;;;19.00;99.90;;;;;;4120492;28;20054;-73
2021/07/29 07:46:55;;;;;;;7.05;2.22;;;19.00;99.90;;;;;;4131928;28;20042;-73
2021/07/29 07:48:56;;;;;;;8.63;2.08;;;18.90;99.90;;;;;;4102347;28;20042;-73
2021/07/29 07:50:57;;;;;;;8.00;2.17;;;18.90;99.90;;;;;;4137691;28;20106;-74
2021/07/29 07:53:01;;;;;;;6.68;2.28;;;18.80;99.90;;;;;;4119374;28;20058;-73
2021/07/29 07:55:02;;;;;;;6.32;1.77;;;18.80;99.90;;;;;;4116486;28;20034;-73
2021/07/29 07:57:05;;;;;;;6.43;1.98;;;18.70;99.90;;;;;;4134567;28;20042;-73
2021/07/29 07:59:05;;;;;;;;;;;18.80;99.90;;;;;;4132530;28;20104;-73
2021/07/29 08:01:06;;;;;;;8.43;2.20;;;18.80;99.90;;;;;;4137593;28;19969;-74
2021/07/29 08:03:07;;;;;;;9.13;2.20;;;18.80;99.90;;;;;;4135247;28;20431;-73
2021/07/29 08:05:08;;;;;;;7.95;2.35;;;18.80;99.90;;;;;;4115403;28;20577;-73
2021/07/29 08:07:08;;;;;;;6.20;2.28;;;18.80;99.90;;;;;;4133269;28;20053;-73
2021/07/29 08:09:09;;;;;;;5.22;1.73;;;18.80;99.90;;;;;;4133718;28;20153;-74
2021/07/29 08:11:10;;;;;;;8.60;2.08;;;18.80;99.90;;;;;;4118400;28;21130;-73
2021/07/29 08:13:11;;;;;;;5.90;1.83;;;18.90;99.90;;;;;;4137807;28;20103;-73
2021/07/29 08:15:12;;;;;;;10.48;2.58;;;19.10;99.90;;;;;;4116950;28;20038;-73
2021/07/29 08:17:12;;;;;;;5.78;1.75;;;19.10;99.90;;;;;;4136380;28;20056;-73
2021/07/29 08:19:13;;;;;;;9.30;2.55;;;19.10;99.90;;;;;;4115903;28;20038;-73
2021/07/29 08:21:14;;;;;;;11.40;2.88;;;19.10;99.90;;;;;;4134559;28;20049;-73
2021/07/29 08:23:14;;;;;;;9.02;2.25;;;19.20;99.90;;;;;;4128460;28;20116;-73
2021/07/29 08:25:18;;;;;;;5.70;1.85;;;19.20;99.90;;;;;;4133174;28;20041;-73
2021/07/29 08:27:19;;;;;;;6.72;2.20;;;19.30;99.90;;;;;;4135175;28;20437;-73
2021/07/29 08:29:19;;;;;;;9.32;2.42;;;19.40;99.90;;;;;;4131113;28;20155;-73
2021/07/29 08:31:21;;;;;;;5.03;1.85;;;19.30;99.90;;;;;;4135076;28;20553;-73
2021/07/29 08:33:22;;;;;;;7.60;2.33;;;19.40;99.90;;;;;;4135020;28;20030;-73
2021/07/29 08:35:23;;;;;;;3.60;2.00;;;19.40;99.90;;;;;;4138777;28;20477;-73
2021/07/29 08:37:23;;;;;;;5.38;2.10;;;19.30;99.90;;;;;;4135852;28;20032;-73
2021/07/29 08:39:24;;;;;;;10.77;2.03;;;19.40;99.90;;;;;;4115523;28;20046;-73
2021/07/29 08:41:25;;;;;;;5.82;1.95;;;19.50;99.90;;;;;;4134993;28;20038;-73
2021/07/29 08:43:28;;;;;;;9.80;2.45;;;19.40;99.90;;;;;;4133407;28;20048;-73
2021/07/29 08:45:30;;;;;;;6.28;1.88;;;19.50;99.90;;;;;;4131626;28;20092;-72
2021/07/29 08:47:32;;;;;;;7.20;1.90;;;19.50;99.90;;;;;;4116310;28;20035;-73
2021/07/29 08:49:34;;;;;;;3.45;1.90;;;19.60;99.90;;;;;;4116302;28;20145;-73
2021/07/29 08:51:35;;;;;;;5.50;2.00;;;19.60;99.90;;;;;;4135909;28;20033;-73
2021/07/29 08:53:36;;;;;;;5.15;1.52;;;19.60;99.90;;;;;;4117441;28;20053;-73
2021/07/29 08:55:36;;;;;;;6.45;2.30;;;19.80;99.90;;;;;;4115464;28;20077;-72
2021/07/29 08:57:39;;;;;;;6.22;2.33;;;19.80;99.90;;;;;;4133979;28;20042;-73
2021/07/29 08:59:40;;;;;;;;;;;19.80;99.90;;;;;;4118287;28;20045;-73
2021/07/29 09:01:42;;;;;;;6.63;2.28;;;19.90;99.90;;;;;;4134744;28;19921;-73
2021/07/29 09:03:44;;;;;;;7.35;1.88;;;19.80;99.90;;;;;;4115896;28;20110;-73
2021/07/29 09:06:01;;;;;;;5.85;2.05;;;19.70;99.90;;;;;;4112950;28;20418;-73
2021/07/29 09:08:06;;;;;;;3.95;1.80;;;19.80;99.90;;;;;;4108246;28;20585;-73
2021/07/29 09:10:26;;;;;;;5.32;1.85;;;19.80;99.90;;;;;;4116075;28;20739;-73
2021/07/29 09:12:26;;;;;;;8.23;2.42;;;19.90;99.90;;;;;;4133427;28;20216;-73
2021/07/29 09:14:29;;;;;;;4.55;2.03;;;19.90;99.90;;;;;;4112818;28;20066;-73
2021/07/29 09:16:34;;;;;;;7.63;2.17;;;19.90;99.90;;;;;;4138776;28;20101;-73
2021/07/29 09:18:36;;;;;;;5.57;2.08;;;19.90;99.90;;;;;;4139674;28;20424;-73
2021/07/29 09:20:37;;;;;;;6.90;2.17;;;19.90;99.90;;;;;;4134152;28;20047;-73
2021/07/29 09:22:37;;;;;;;2.58;1.50;;;19.90;99.90;;;;;;4118159;28;20069;-73
2021/07/29 09:24:54;;;;;;;6.15;1.85;;;20.00;99.90;;;;;;4118317;28;21205;-73
2021/07/29 09:26:59;;;;;;;7.53;2.22;;;20.10;99.90;;;;;;4115594;28;20042;-73
2021/07/29 09:29:00;;;;;;;6.65;2.45;;;20.10;99.90;;;;;;4133355;28;20038;-73
2021/07/29 09:31:21;;;;;;;6.40;2.03;;;20.20;99.90;;;;;;4128842;28;20103;-73
2021/07/29 09:33:21;;;;;;;5.28;2.00;;;20.30;99.90;;;;;;4132130;28;20043;-73
2021/07/29 09:35:45;;;;;;;8.20;2.10;;;20.30;99.90;;;;;;4102368;28;20061;-73
2021/07/29 09:37:50;;;;;;;;;;;20.40;99.90;;;;;;4132253;28;20037;-73
2021/07/29 09:40:00;;;;;;;7.35;2.10;;;20.30;99.90;;;;;;4130251;28;20354;-73
2021/07/29 09:42:15;;;;;;;6.13;2.65;;;20.30;99.90;;;;;;4116564;28;20046;-73
2021/07/29 09:44:39;;;;;;;4.97;1.65;;;20.30;99.90;;;;;;4119428;28;20122;-73
2021/07/29 09:46:41;;;;;;;5.07;2.05;;;20.40;99.90;;;;;;4132694;28;20202;-73
2021/07/29 09:48:43;;;;;;;5.90;1.77;;;20.50;99.90;;;;;;4114263;28;20047;-73
2021/07/29 09:50:45;;;;;;;4.35;1.50;;;20.50;99.90;;;;;;4133037;28;20049;-73
2021/07/29 09:52:45;;;;;;;5.50;1.55;;;20.60;99.90;;;;;;4117563;28;20070;-73
2021/07/29 09:54:47;;;;;;;7.32;2.53;;;20.70;99.90;;;;;;4137489;28;20575;-73
2021/07/29 09:56:48;;;;;;;3.38;1.33;;;20.70;99.90;;;;;;4110249;28;20039;-73
2021/07/29 09:58:48;;;;;;;6.97;1.38;;;20.80;99.90;;;;;;4129343;28;20042;-73
2021/07/29 10:00:50;;;;;;;5.07;1.80;;;20.90;99.90;;;;;;4116910;28;20038;-73
2021/07/29 10:02:53;;;;;;;6.78;2.05;;;20.90;99.90;;;;;;4115607;28;20047;-73
2021/07/29 10:04:58;;;;;;;6.05;1.80;;;21.00;99.90;;;;;;4101750;28;20077;-73
2021/07/29 10:07:02;;;;;;;4.28;1.80;;;21.10;99.90;;;;;;4131145;28;20037;-73
2021/07/29 10:09:12;;;;;;;5.22;1.70;;;21.30;99.90;;;;;;4136244;28;20042;-73
2021/07/29 10:11:15;;;;;;;9.00;1.75;;;21.30;99.90;;;;;;4116749;28;20054;-73
2021/07/29 10:13:16;;;;;;;7.55;1.92;;;21.40;99.90;;;;;;4135322;28;20054;-73
2021/07/29 10:15:39;;;;;;;6.65;1.55;;;21.50;99.90;;;;;;4134845;28;20046;-73
2021/07/29 10:17:43;;;;;;;6.43;1.63;;;21.60;99.90;;;;;;4129986;28;20067;-74
2021/07/29 10:20:11;;;;;;;6.57;1.83;;;21.70;99.90;;;;;;4114824;28;20040;-73
2021/07/29 10:22:30;;;;;;;5.80;2.00;;;21.80;99.90;;;;;;4128573;28;20099;-73
2021/07/29 10:24:52;;;;;;;6.90;2.05;;;21.90;99.90;;;;;;4113530;28;20053;-72
2021/07/29 10:26:58;;;;;;;4.85;1.63;;;21.90;99.00;;;;;;4131101;28;20054;-73
2021/07/29 10:29:18;;;;;;;5.22;1.85;;;21.90;99.90;;;;;;4131246;28;20067;-73
2021/07/29 10:31:19;;;;;;;3.80;1.60;;;21.80;99.90;;;;;;4134419;28;20200;-73
2021/07/29 10:33:23;;;;;;;10.57;2.05;;;21.80;99.90;;;;;;4130529;28;20041;-73
2021/07/29 10:35:30;;;;;;;4.45;1.65;;;21.70;99.70;;;;;;4135309;28;20126;-73
2021/07/29 10:37:42;;;;;;;5.25;1.38;;;21.70;99.90;;;;;;4119524;28;20031;-73